Time;durP1;ratioP1;P1;durP2;ratioP2;P2;SDS_P1;SDS_P2;PMS_P1;PMS_P2;Temp;Humidity;BMP_temperature;BMP_pressure;BME280_temperature;BME280_humidity;BME280_pressure;Samples;Min_cycle;Max_cycle;Signal;HPM_P1;HPM_P2
2022/12/13 00:02:09;;;;;;;11.88;6.50;;;;;;;3.59;100.00;98042.84;5057689;28;20049;-94
2022/12/13 00:04:35;;;;;;;9.65;5.28;;;;;;;3.65;100.00;98048.06;5057773;28;20052;-92
2022/12/13 00:07:01;;;;;;;9.82;5.57;;;;;;;3.45;100.00;98007.06;5057652;28;20041;-96
2022/12/13 00:09:28;;;;;;;8.02;5.30;;;;;;;3.52;100.00;98014.91;5058616;28;20033;-94
2022/12/13 00:11:54;;;;;;;12.25;6.22;;;;;;;3.75;100.00;98039.16;5058132;28;20489;-94
2022/12/13 00:14:20;;;;;;;10.90;5.68;;;;;;;3.70;100.00;98025.19;5058233;28;20140;-93
2022/12/13 00:16:48;;;;;;;12.80;6.38;;;;;;;3.45;100.00;97980.78;5056409;28;20060;-96
2022/12/13 00:19:14;;;;;;;13.48;6.95;;;;;;;3.45;100.00;97985.19;5058762;28;20120;-94
2022/12/13 00:21:40;;;;;;;17.73;7.95;;;;;;;3.63;100.00;98010.38;5057802;28;20051;-93
2022/12/13 00:24:06;;;;;;;15.13;9.27;;;;;;;3.59;100.00;98025.31;5056340;28;20033;-95
2022/12/13 00:26:34;;;;;;;13.48;8.70;;;;;;;3.28;100.00;97986.22;5055410;28;20046;-95
2022/12/13 00:29:01;;;;;;;15.13;9.02;;;;;;;3.23;100.00;97985.41;5053904;28;20037;-95
2022/12/13 00:31:30;;;;;;;16.20;10.43;;;;;;;3.22;100.00;97998.56;5056169;28;20078;-94
2022/12/13 00:33:56;;;;;;;14.93;8.68;;;;;;;3.17;100.00;98003.00;5055930;28;20060;-93
2022/12/13 00:36:22;;;;;;;16.55;10.10;;;;;;;3.15;100.00;97995.13;5056700;28;20045;-94
2022/12/13 00:38:59;;;;;;;16.00;9.43;;;;;;;3.04;100.00;97989.13;5054623;28;20110;-94
2022/12/13 00:41:27;;;;;;;17.95;10.43;;;;;;;3.06;100.00;97992.59;5056918;28;20045;-95
2022/12/13 00:43:55;;;;;;;18.02;10.93;;;;;;;3.16;100.00;98017.00;5057368;28;20163;-95
2022/12/13 00:46:21;;;;;;;17.48;11.07;;;;;;;3.01;100.00;97997.88;5056664;28;20132;-95
2022/12/13 00:48:48;;;;;;;17.80;11.13;;;;;;;2.96;100.00;97975.19;5057058;28;20057;-95
2022/12/13 00:51:14;;;;;;;17.35;10.05;;;;;;;2.93;100.00;97977.81;5056582;28;20119;-93
2022/12/13 00:53:40;;;;;;;16.67;9.25;;;;;;;3.03;100.00;98000.50;5057255;28;20033;-94
2022/12/13 00:56:10;;;;;;;15.20;9.07;;;;;;;3.02;100.00;97978.63;5056739;28;20033;-94
2022/12/13 00:58:36;;;;;;;15.57;8.82;;;;;;;3.02;100.00;97977.75;5056995;28;20037;-94
2022/12/13 01:01:04;;;;;;;16.02;9.40;;;;;;;3.29;100.00;98010.75;5055875;28;20037;-94
2022/12/13 01:03:30;;;;;;;13.75;8.82;;;;;;;3.23;100.00;97992.41;5056398;28;20025;-94
2022/12/13 01:05:56;;;;;;;16.88;9.68;;;;;;;3.40;100.00;98013.25;5056640;28;20048;-94
2022/12/13 01:08:22;;;;;;;16.58;8.90;;;;;;;3.40;100.00;98011.50;5055758;28;20052;-94
2022/12/13 01:10:48;;;;;;;16.38;8.43;;;;;;;3.31;100.00;98000.22;5055650;28;20136;-94
2022/12/13 01:13:14;;;;;;;13.23;8.13;;;;;;;3.47;100.00;98014.91;5055438;28;20087;-94
2022/12/13 01:15:41;;;;;;;14.32;8.63;;;;;;;3.66;100.00;98020.84;5055507;28;20486;-94
2022/12/13 01:18:08;;;;;;;14.05;8.80;;;;;;;3.42;100.00;98014.97;5055900;28;20041;-93
2022/12/13 01:20:35;;;;;;;14.13;8.75;;;;;;;3.29;100.00;98013.38;5055685;28;20048;-93
2022/12/13 01:23:00;;;;;;;14.30;7.90;;;;;;;3.39;100.00;98030.78;5056069;28;20044;-94
2022/12/13 01:25:26;;;;;;;13.18;8.63;;;;;;;3.43;100.00;98029.88;5056901;28;20037;-93
2022/12/13 01:27:52;;;;;;;15.07;8.82;;;;;;;3.30;100.00;97986.22;5056381;28;20037;-93
2022/12/13 01:30:18;;;;;;;13.68;8.63;;;;;;;3.39;100.00;98008.91;5055218;28;20128;-93
2022/12/13 01:32:44;;;;;;;17.27;9.50;;;;;;;3.18;100.00;97981.94;5056416;28;20040;-92
2022/12/13 01:35:12;;;;;;;19.10;10.63;;;;;;;3.02;100.00;97981.25;5057348;28;20116;-91
2022/12/13 01:37:38;;;;;;;18.90;10.85;;;;;;;3.11;100.00;97988.16;5055808;28;20120;-93
2022/12/13 01:40:05;;;;;;;18.40;10.73;;;;;;;2.96;100.00;97964.66;5057488;28;20047;-92
2022/12/13 01:42:31;;;;;;;19.33;10.70;;;;;;;2.86;100.00;97974.38;5057193;28;20128;-92
2022/12/13 01:45:08;;;;;;;16.65;9.80;;;;;;;2.83;100.00;97969.16;5057060;28;20068;-91
2022/12/13 01:47:39;;;;;;;18.92;10.15;;;;;;;3.15;100.00;98005.63;5056515;28;20044;-90
2022/12/13 01:50:10;;;;;;;16.40;10.23;;;;;;;3.11;100.00;97992.53;5055752;28;20053;-91
2022/12/13 01:52:41;;;;;;;21.05;10.98;;;;;;;2.94;100.00;97984.81;5052775;28;20063;-91
2022/12/13 01:55:08;;;;;;;19.58;11.23;;;;;;;2.71;100.00;97956.13;5053290;28;20040;-91
2022/12/13 01:57:39;;;;;;;16.00;10.05;;;;;;;2.80;100.00;97953.44;5056063;28;20473;-92
2022/12/13 02:00:07;;;;;;;15.80;10.10;;;;;;;2.86;100.00;97956.00;5051433;28;20040;-93
2022/12/13 02:02:33;;;;;;;17.13;10.02;;;;;;;3.08;100.00;97977.69;5055190;28;20045;-93
2022/12/13 02:05:05;;;;;;;17.20;10.15;;;;;;;2.93;100.00;97949.81;5053853;28;20132;-91
2022/12/13 02:07:34;;;;;;;20.38;10.73;;;;;;;2.73;100.00;97917.63;5052639;28;20129;-93
2022/12/13 02:10:05;;;;;;;18.37;10.43;;;;;;;2.87;100.00;97932.34;5054862;28;20044;-91
2022/12/13 02:12:34;;;;;;;15.48;10.40;;;;;;;2.94;100.00;97927.91;5053441;28;20060;-90
2022/12/13 02:15:03;;;;;;;16.35;9.90;;;;;;;2.93;100.00;97905.19;5054023;28;20135;-91
2022/12/13 02:17:46;;;;;;;15.27;9.63;;;;;;;3.03;100.00;97911.19;5054048;28;20045;-92
2022/12/13 02:20:39;;;;;;;15.68;9.38;;;;;;;3.19;100.00;97939.03;5053443;28;20127;-93
2022/12/13 02:23:39;;;;;;;15.38;8.80;;;;;;;3.15;100.00;97949.59;5087514;28;20376;-92
2022/12/13 02:26:44;;;;;;;15.93;8.95;;;;;;;3.10;100.00;97949.63;5018438;28;20053;-92
2022/12/13 02:29:43;;;;;;;16.60;9.13;;;;;;;3.08;100.00;97936.53;4980425;28;20073;-91
2022/12/13 02:32:16;;;;;;;15.02;8.82;;;;;;;3.11;100.00;97930.38;4960308;28;20148;-93
2022/12/13 02:34:50;;;;;;;14.32;8.50;;;;;;;3.01;100.00;97894.56;4980669;28;20137;-91
2022/12/13 02:37:22;;;;;;;14.60;8.45;;;;;;;3.01;100.00;97884.06;4982201;28;20038;-92
2022/12/13 02:39:54;;;;;;;18.58;9.13;;;;;;;3.09;100.00;97922.50;4979744;28;20047;-90
2022/12/13 02:42:25;;;;;;;14.70;9.43;;;;;;;3.04;100.00;97929.56;4978214;28;20050;-91
2022/12/13 02:44:56;;;;;;;15.18;9.48;;;;;;;2.99;100.00;97919.97;4979463;28;20052;-90
2022/12/13 02:47:26;;;;;;;16.40;9.50;;;;;;;3.00;100.00;97896.34;4978675;28;20887;-91
2022/12/13 02:49:56;;;;;;;14.70;8.48;;;;;;;2.92;100.00;97876.31;4977498;28;20134;-90
2022/12/13 02:52:26;;;;;;;16.38;8.77;;;;;;;3.10;100.00;97907.59;4979931;28;20538;-91
2022/12/13 02:54:54;;;;;;;13.15;8.85;;;;;;;3.15;100.00;97921.56;4982846;28;20050;-92
2022/12/13 02:57:29;;;;;;;19.10;11.07;;;;;;;3.02;100.00;97902.44;4982405;28;20501;-92
2022/12/13 02:59:58;;;;;;;12.95;8.23;;;;;;;3.16;100.00;97904.03;4985476;28;20042;-92
2022/12/13 03:02:38;;;;;;;16.58;9.30;;;;;;;3.13;100.00;97896.22;4981884;28;20046;-94
2022/12/13 03:08:24;;;;;;;13.82;7.60;;;;;;;3.12;100.00;97852.44;5142233;27;20427;-93
2022/12/13 03:11:03;;;;;;;19.95;8.18;;;;;;;3.12;100.00;97837.53;5123654;27;20064;-92
2022/12/13 03:13:38;;;;;;;15.30;7.60;;;;;;;3.23;100.00;97856.69;5105549;28;20138;-91
2022/12/13 03:16:12;;;;;;;15.65;7.93;;;;;;;3.23;100.00;97855.78;5102995;28;20082;-91
2022/12/13 03:18:39;;;;;;;13.70;7.10;;;;;;;3.18;100.00;97844.47;5105527;28;20123;-91
2022/12/13 03:21:07;;;;;;;11.45;6.75;;;;;;;3.21;100.00;97849.69;5103609;28;20132;-91
2022/12/13 03:23:36;;;;;;;11.38;7.85;;;;;;;3.30;100.00;97870.59;5105527;28;20139;-91
2022/12/13 03:26:07;;;;;;;12.05;7.25;;;;;;;3.18;100.00;97833.97;5104808;28;20043;-93
2022/12/13 03:28:33;;;;;;;14.38;7.22;;;;;;;3.34;100.00;97851.28;5103647;28;20070;-91
2022/12/13 03:30:59;;;;;;;12.43;7.57;;;;;;;3.34;100.00;97874.94;5102990;28;20752;-91
2022/12/13 03:33:25;;;;;;;11.13;7.38;;;;;;;3.27;100.00;97881.13;5106124;28;20060;-92
2022/12/13 03:35:51;;;;;;;13.40;8.63;;;;;;;3.34;100.00;97892.44;5099946;28;20063;-92
2022/12/13 03:38:18;;;;;;;13.63;8.00;;;;;;;3.19;100.00;97857.59;5103122;28;20135;-93
2022/12/13 03:40:45;;;;;;;12.02;6.53;;;;;;;3.23;100.00;97840.91;5094894;28;20040;-92
2022/12/13 03:43:11;;;;;;;12.10;7.13;;;;;;;3.40;100.00;97838.03;5103365;28;20090;-91
2022/12/13 03:45:37;;;;;;;11.45;7.05;;;;;;;3.36;100.00;97817.97;5096330;28;20044;-93
2022/12/13 03:48:03;;;;;;;11.52;6.45;;;;;;;3.44;100.00;97823.97;5102684;28;20050;-92
2022/12/13 03:50:29;;;;;;;10.70;6.63;;;;;;;3.54;100.00;97834.38;5101630;28;20039;-91
2022/12/13 03:52:58;;;;;;;12.10;6.75;;;;;;;3.23;100.00;97796.25;5099913;28;20040;-90
2022/12/13 03:55:24;;;;;;;10.20;6.20;;;;;;;3.30;100.00;97815.44;5093607;28;20135;-93
2022/12/13 03:57:51;;;;;;;10.75;6.60;;;;;;;3.27;100.00;97823.34;5100220;28;20067;-91
2022/12/13 04:00:17;;;;;;;11.32;6.95;;;;;;;3.21;100.00;97824.31;5099604;28;20033;-93
2022/12/13 04:02:43;;;;;;;14.10;8.02;;;;;;;3.17;100.00;97814.72;5103172;28;20044;-91
2022/12/13 04:05:09;;;;;;;11.48;7.15;;;;;;;3.25;100.00;97840.88;5104169;28;20051;-91
2022/12/13 04:07:35;;;;;;;10.65;6.57;;;;;;;3.19;100.00;97819.94;5101014;28;20118;-91
2022/12/13 04:10:01;;;;;;;10.35;6.35;;;;;;;3.42;100.00;97838.88;5102298;28;20127;-90
2022/12/13 04:15:22;;;;;;;10.30;5.78;;;;;;;3.38;100.00;97800.41;5093533;27;21192;-91
2022/12/13 04:17:48;;;;;;;9.52;5.75;;;;;;;3.36;100.00;97786.44;5093432;28;20048;-92
2022/12/13 04:20:16;;;;;;;10.27;6.20;;;;;;;3.41;100.00;97818.78;5096220;28;20036;-91
2022/12/13 04:22:44;;;;;;;8.82;5.70;;;;;;;3.38;100.00;97808.28;5093804;28;20044;-93
2022/12/13 04:25:11;;;;;;;9.82;6.32;;;;;;;3.30;100.00;97797.03;5094785;28;20044;-91
2022/12/13 04:27:37;;;;;;;15.63;6.07;;;;;;;3.39;100.00;97809.19;5095125;28;20040;-92
2022/12/13 04:30:04;;;;;;;11.65;6.25;;;;;;;3.29;100.00;97792.66;5092400;28;20070;-90
2022/12/13 04:32:31;;;;;;;11.27;6.15;;;;;;;3.38;100.00;97813.53;5091086;28;20131;-90
2022/12/13 04:34:57;;;;;;;9.40;5.30;;;;;;;3.40;100.00;97830.16;5090290;28;20013;-93
2022/12/13 04:37:23;;;;;;;9.63;5.63;;;;;;;3.52;100.00;97842.28;5090700;28;20036;-90
2022/12/13 04:39:49;;;;;;;9.73;5.93;;;;;;;3.47;100.00;97816.06;5088044;28;20670;-89
2022/12/13 04:42:15;;;;;;;7.57;4.95;;;;;;;3.27;100.00;97778.66;5088977;28;20482;-93
2022/12/13 04:44:41;;;;;;;9.13;5.25;;;;;;;3.46;100.00;97809.06;5091521;28;20516;-92
2022/12/13 04:47:06;;;;;;;7.07;4.78;;;;;;;3.44;100.00;97809.97;5089597;28;20036;-93
2022/12/13 04:49:34;;;;;;;7.18;4.35;;;;;;;3.49;100.00;97816.91;5092442;28;20494;-92
2022/12/13 04:52:01;;;;;;;8.43;5.07;;;;;;;3.37;100.00;97790.78;5092212;28;20033;-90
2022/12/13 04:54:26;;;;;;;9.48;4.90;;;;;;;3.38;100.00;97786.41;5091490;28;20040;-93
2022/12/13 04:56:52;;;;;;;8.60;5.13;;;;;;;3.29;100.00;97771.63;5093249;28;20101;-92
2022/12/13 04:59:18;;;;;;;7.75;5.00;;;;;;;3.39;100.00;97777.66;5089652;28;20050;-93
2022/12/13 05:01:44;;;;;;;7.70;4.80;;;;;;;3.37;100.00;97759.25;5087960;28;20485;-92
2022/12/13 05:04:10;;;;;;;8.15;5.07;;;;;;;3.38;100.00;97754.88;5090083;28;20040;-93
2022/12/13 05:06:38;;;;;;;7.93;4.93;;;;;;;3.38;100.00;97760.13;5090396;28;20044;-92
2022/12/13 05:09:03;;;;;;;7.43;4.90;;;;;;;3.27;100.00;97747.13;5089486;28;20036;-92
2022/12/13 05:11:29;;;;;;;10.15;6.03;;;;;;;3.31;100.00;97763.75;5093309;28;20024;-93
2022/12/13 05:13:55;;;;;;;10.48;6.20;;;;;;;3.20;100.00;97745.50;5091857;28;20562;-90
2022/12/13 05:16:21;;;;;;;10.20;6.00;;;;;;;3.37;100.00;97763.66;5089420;28;20048;-93
2022/12/13 05:18:47;;;;;;;9.40;6.15;;;;;;;3.27;100.00;97752.41;5091824;28;20050;-92
2022/12/13 05:21:13;;;;;;;9.95;6.40;;;;;;;3.36;100.00;97773.31;5088516;28;20052;-92
2022/12/13 05:23:40;;;;;;;10.32;5.82;;;;;;;3.12;100.00;97715.84;5090038;28;20089;-92
2022/12/13 05:26:06;;;;;;;7.80;5.32;;;;;;;3.21;100.00;97731.47;5079142;28;20036;-91
2022/12/13 05:28:32;;;;;;;10.07;5.90;;;;;;;3.20;100.00;97720.09;5075746;28;20054;-93
2022/12/13 05:31:05;;;;;;;10.43;5.97;;;;;;;3.39;100.00;97760.09;5076342;28;20036;-94
2022/12/13 05:33:31;;;;;;;9.32;5.75;;;;;;;3.40;100.00;97763.59;5076048;28;20044;-92
2022/12/13 05:35:57;;;;;;;8.43;5.13;;;;;;;3.44;100.00;97776.66;5075340;28;20098;-92
2022/12/13 05:38:23;;;;;;;8.25;5.35;;;;;;;3.33;100.00;97756.69;5073054;28;20056;-93
2022/12/13 05:40:50;;;;;;;9.13;5.57;;;;;;;3.44;100.00;97771.41;5075637;28;20489;-91
2022/12/13 05:43:16;;;;;;;7.90;4.97;;;;;;;3.55;100.00;97791.41;5074223;28;20036;-93
2022/12/13 05:45:42;;;;;;;6.95;4.80;;;;;;;3.48;100.00;97762.59;5074445;28;20045;-92
2022/12/13 05:48:09;;;;;;;6.85;4.43;;;;;;;3.50;100.00;97759.94;5076168;28;20016;-92
2022/12/13 05:50:37;;;;;;;6.28;4.03;;;;;;;3.61;100.00;97765.03;5075912;28;20115;-92
2022/12/13 05:53:03;;;;;;;8.25;4.38;;;;;;;3.50;100.00;97758.19;5075637;28;20105;-92
2022/12/13 05:55:29;;;;;;;6.15;3.58;;;;;;;3.45;100.00;97738.13;5074422;28;20044;-90
2022/12/13 05:57:56;;;;;;;6.95;4.18;;;;;;;3.37;100.00;97732.97;5076677;28;20155;-91
2022/12/13 06:00:22;;;;;;;7.15;4.38;;;;;;;3.36;100.00;97736.50;5075165;28;20470;-95
2022/12/13 06:02:48;;;;;;;7.28;4.05;;;;;;;3.47;100.00;97752.97;5075641;28;20075;-93
2022/12/13 06:05:14;;;;;;;7.22;4.30;;;;;;;3.52;100.00;97763.41;5077690;28;20437;-93
2022/12/13 06:07:40;;;;;;;6.18;3.92;;;;;;;3.39;100.00;97736.47;5076588;28;20128;-92
2022/12/13 06:10:07;;;;;;;6.97;4.53;;;;;;;3.60;100.00;97781.69;5077573;28;20056;-90
2022/12/13 06:12:34;;;;;;;8.40;4.20;;;;;;;3.50;100.00;97768.69;5072623;28;20044;-92
2022/12/13 06:15:01;;;;;;;6.65;3.83;;;;;;;3.38;100.00;97755.72;5075978;28;20140;-90
2022/12/13 06:17:30;;;;;;;6.47;3.83;;;;;;;3.45;100.00;97746.03;5075838;28;20101;-93
2022/12/13 06:19:55;;;;;;;5.50;3.63;;;;;;;3.55;100.00;97749.34;5073911;28;20135;-93
2022/12/13 06:22:21;;;;;;;6.63;3.80;;;;;;;3.50;100.00;97733.66;5076162;28;20198;-94
2022/12/13 06:24:47;;;;;;;5.95;3.72;;;;;;;3.74;100.00;97760.47;5075119;28;20188;-91
2022/12/13 06:27:13;;;;;;;5.65;4.07;;;;;;;3.66;100.00;97755.31;5075600;28;20051;-92
2022/12/13 06:29:39;;;;;;;6.82;4.50;;;;;;;3.55;100.00;97738.84;5075808;28;20090;-92
2022/12/13 06:32:06;;;;;;;7.07;4.68;;;;;;;3.52;100.00;97749.41;5071649;28;20040;-89
2022/12/13 06:34:34;;;;;;;7.38;4.72;;;;;;;3.40;100.00;97732.91;5074765;28;20051;-91
2022/12/13 06:37:00;;;;;;;6.88;4.70;;;;;;;3.37;100.00;97718.97;5075213;28;20033;-91
2022/12/13 06:39:27;;;;;;;7.07;4.75;;;;;;;3.46;100.00;97735.47;5077325;28;20127;-93
2022/12/13 06:41:54;;;;;;;7.30;4.70;;;;;;;3.33;100.00;97707.63;5077630;28;20041;-92
2022/12/13 06:44:20;;;;;;;6.80;4.25;;;;;;;3.53;100.00;97736.22;5076588;28;20047;-94
2022/12/13 06:46:45;;;;;;;7.97;5.22;;;;;;;3.33;100.00;97699.75;5075943;28;20032;-91
2022/12/13 06:49:13;;;;;;;8.10;5.05;;;;;;;3.39;100.00;97704.91;5081433;28;20155;-94
2022/12/13 06:51:39;;;;;;;5.38;3.67;;;;;;;3.49;100.00;97716.13;5077068;28;20037;-92
2022/12/13 06:54:05;;;;;;;5.72;3.70;;;;;;;3.50;100.00;97713.50;5074919;28;20086;-91
2022/12/13 06:56:31;;;;;;;6.18;4.10;;;;;;;3.49;100.00;97711.78;5076891;28;20040;-92
2022/12/13 06:59:00;;;;;;;7.95;4.85;;;;;;;3.49;100.00;97696.00;5085881;28;20032;-93
2022/12/13 07:01:26;;;;;;;7.13;4.63;;;;;;;3.44;100.00;97696.97;5078317;28;20044;-92
2022/12/13 07:03:53;;;;;;;7.53;4.65;;;;;;;3.64;100.00;97720.28;5073922;28;20048;-92
2022/12/13 07:06:23;;;;;;;6.88;4.50;;;;;;;3.52;100.00;97704.75;5076528;28;20040;-93
2022/12/13 07:08:51;;;;;;;7.63;4.45;;;;;;;3.69;100.00;97724.59;5070457;28;20041;-95
2022/12/13 07:11:20;;;;;;;6.57;4.07;;;;;;;3.68;100.00;97709.69;5076942;28;20140;-93
2022/12/13 07:13:46;;;;;;;6.00;4.07;;;;;;;3.74;100.00;97727.16;5077072;28;20313;-92
2022/12/13 07:16:12;;;;;;;6.78;4.47;;;;;;;3.84;100.00;97728.72;5076261;28;20041;-93
2022/12/13 07:18:39;;;;;;;7.88;4.90;;;;;;;3.78;100.00;97743.75;5075908;28;20037;-94
2022/12/13 07:21:05;;;;;;;7.07;4.60;;;;;;;3.52;100.00;97702.97;5077081;28;20064;-91
2022/12/13 07:23:33;;;;;;;7.78;4.47;;;;;;;3.67;100.00;97736.91;5075466;28;20033;-92
2022/12/13 07:25:59;;;;;;;7.00;4.50;;;;;;;3.64;100.00;97730.81;5075837;28;20041;-94
2022/12/13 07:28:25;;;;;;;6.35;4.00;;;;;;;3.73;100.00;97742.94;5075758;28;20032;-92
2022/12/13 07:30:51;;;;;;;6.70;4.25;;;;;;;3.63;100.00;97718.56;5074280;28;20028;-92
2022/12/13 07:33:17;;;;;;;5.15;3.30;;;;;;;3.87;100.00;97743.59;5074435;28;20036;-91
2022/12/13 07:35:43;;;;;;;6.22;3.65;;;;;;;3.75;100.00;97715.72;5074566;28;20041;-93
2022/12/13 07:38:10;;;;;;;6.22;3.50;;;;;;;3.81;100.00;97718.25;5074716;28;20048;-94
2022/12/13 07:40:39;;;;;;;5.07;3.38;;;;;;;3.87;100.00;97714.66;5074623;28;20558;-93
2022/12/13 07:43:05;;;;;;;5.00;3.35;;;;;;;3.94;100.00;97721.53;5075113;28;20043;-94
2022/12/13 07:45:31;;;;;;;6.75;3.22;;;;;;;4.00;100.00;97729.31;5073973;28;20016;-92
2022/12/13 07:47:58;;;;;;;5.45;3.50;;;;;;;3.99;100.00;97721.44;5075243;28;20070;-93
2022/12/13 07:50:24;;;;;;;4.70;3.30;;;;;;;3.88;100.00;97709.38;5074923;28;20428;-92
2022/12/13 07:52:50;;;;;;;5.57;3.45;;;;;;;4.03;100.00;97721.38;5075894;28;20044;-93
2022/12/13 07:55:16;;;;;;;6.35;3.72;;;;;;;4.00;100.00;97710.06;5075021;28;20490;-92
2022/12/13 07:57:44;;;;;;;5.10;3.20;;;;;;;3.96;100.00;97706.59;5074809;28;20050;-92
2022/12/13 08:00:11;;;;;;;5.18;3.95;;;;;;;3.83;100.00;97697.19;5073966;28;20044;-93
2022/12/13 08:02:38;;;;;;;5.97;3.78;;;;;;;4.01;100.00;97724.94;5080835;28;20037;-91
2022/12/13 08:05:05;;;;;;;4.68;3.50;;;;;;;3.94;100.00;97703.13;5075990;28;20472;-94
2022/12/13 08:07:31;;;;;;;5.95;3.65;;;;;;;3.86;100.00;97699.75;5076561;28;20055;-94
2022/12/13 08:09:57;;;;;;;6.05;3.92;;;;;;;3.93;100.00;97718.97;5076573;28;20044;-94
2022/12/13 08:12:23;;;;;;;5.82;3.95;;;;;;;4.09;100.00;97731.78;5074180;28;20036;-94
2022/12/13 08:14:50;;;;;;;6.63;4.18;;;;;;;3.97;100.00;97700.47;5074876;28;20097;-93
2022/12/13 08:17:16;;;;;;;7.28;3.85;;;;;;;3.94;100.00;97681.22;5073985;28;20032;-93
2022/12/13 08:19:42;;;;;;;7.28;4.85;;;;;;;3.90;100.00;97673.41;5075667;28;20512;-94
2022/12/13 08:22:11;;;;;;;5.78;3.95;;;;;;;4.39;100.00;97723.38;5078725;28;20024;-93
2022/12/13 08:24:37;;;;;;;6.72;4.30;;;;;;;4.04;100.00;97681.03;5075245;28;20025;-91
2022/12/13 08:27:04;;;;;;;7.20;4.07;;;;;;;4.11;100.00;97677.38;5077969;28;20047;-93
2022/12/13 08:29:33;;;;;;;5.43;3.63;;;;;;;4.20;100.00;97693.91;5073501;28;20047;-93
2022/12/13 08:32:00;;;;;;;4.50;3.07;;;;;;;4.13;100.00;97687.03;5075666;28;20429;-92
2022/12/13 08:34:26;;;;;;;5.38;3.50;;;;;;;4.22;100.00;97697.38;5076768;28;20032;-92
2022/12/13 08:36:52;;;;;;;6.30;3.47;;;;;;;4.21;100.00;97695.66;5078658;28;20045;-95
2022/12/13 08:39:18;;;;;;;7.85;3.42;;;;;;;4.46;100.00;97741.63;5076375;28;20490;-93
2022/12/13 08:41:44;;;;;;;5.72;3.67;;;;;;;4.48;100.00;97731.09;5075812;28;20044;-93
2022/12/13 08:44:10;;;;;;;4.70;3.10;;;;;;;4.44;100.00;97719.72;5076588;28;20060;-94
2022/12/13 08:46:36;;;;;;;5.35;2.88;;;;;;;4.45;100.00;97704.84;5075471;28;20037;-92
2022/12/13 08:49:03;;;;;;;3.53;2.50;;;;;;;4.56;100.00;97731.81;5074386;28;20098;-92
2022/12/13 08:51:29;;;;;;;5.93;3.17;;;;;;;4.48;100.00;97721.41;5073667;28;20036;-95
2022/12/13 08:53:55;;;;;;;4.18;2.55;;;;;;;4.49;100.00;97715.25;5073975;28;20543;-94
2022/12/13 08:56:21;;;;;;;4.70;3.13;;;;;;;4.75;100.00;97740.22;5075858;28;20094;-93
2022/12/13 08:58:49;;;;;;;5.10;3.28;;;;;;;4.63;100.00;97709.72;5076097;28;20040;-94
2022/12/13 09:01:14;;;;;;;5.03;3.40;;;;;;;4.70;100.00;97716.56;5079129;28;20049;-93
2022/12/13 09:03:40;;;;;;;4.55;3.28;;;;;;;4.80;100.00;97748.00;5083564;28;20045;-91
2022/12/13 09:06:10;;;;;;;4.55;2.88;;;;;;;4.64;100.00;97721.09;5083220;28;20045;-94
2022/12/13 09:08:36;;;;;;;;;;;;;;;4.86;100.00;97761.94;5083549;28;20040;-91
2022/12/13 09:11:03;;;;;;;4.97;3.42;;;;;;;4.69;100.00;97722.75;5084108;28;19996;-94
2022/12/13 09:13:30;;;;;;;5.22;3.55;;;;;;;5.03;100.00;97742.25;5083495;28;20040;-93
2022/12/13 09:15:55;;;;;;;5.70;3.63;;;;;;;4.79;100.00;97712.03;5083372;28;20034;-93
2022/12/13 09:18:22;;;;;;;4.75;3.33;;;;;;;4.73;100.00;97718.31;5083905;28;20060;-93
2022/12/13 09:20:48;;;;;;;4.38;3.10;;;;;;;4.97;100.00;97753.81;5082083;28;20383;-94
2022/12/13 09:23:15;;;;;;;4.97;3.10;;;;;;;4.99;100.00;97748.47;5082994;28;20046;-92
2022/12/13 09:25:41;;;;;;;4.55;3.35;;;;;;;4.93;100.00;97746.84;5082857;28;20048;-91
2022/12/13 09:28:08;;;;;;;4.63;3.20;;;;;;;4.91;100.00;97741.63;5082953;28;20032;-91
2022/12/13 09:30:34;;;;;;;5.40;3.50;;;;;;;4.84;100.00;97739.16;5081499;28;20043;-92
2022/12/13 09:33:00;;;;;;;4.32;2.88;;;;;;;4.85;100.00;97739.09;5082457;28;20097;-93
2022/12/13 09:35:26;;;;;;;5.50;3.40;;;;;;;5.02;100.00;97765.09;5083221;28;20498;-94
2022/12/13 09:37:54;;;;;;;4.65;3.00;;;;;;;5.13;100.00;97768.38;5082891;28;20072;-94
2022/12/13 09:40:26;;;;;;;5.88;3.60;;;;;;;5.19;100.00;97755.97;5083459;28;20039;-93
2022/12/13 09:42:54;;;;;;;4.30;2.95;;;;;;;5.00;100.00;97739.69;5079007;28;20027;-93
2022/12/13 09:45:20;;;;;;;4.13;3.00;;;;;;;5.24;100.00;97775.19;5083324;28;20055;-94
2022/12/13 09:47:48;;;;;;;4.78;3.15;;;;;;;5.15;100.00;97742.00;5079147;28;20047;-95
2022/12/13 09:50:20;;;;;;;3.83;2.80;;;;;;;5.14;100.00;97759.56;5078018;28;20142;-91
2022/12/13 09:52:47;;;;;;;3.80;2.90;;;;;;;5.33;100.00;97770.59;5079108;28;20104;-93
2022/12/13 09:55:23;;;;;;;5.95;3.20;;;;;;;5.06;100.00;97735.16;5079349;28;20537;-92
2022/12/13 09:57:50;;;;;;;4.63;2.78;;;;;;;5.34;100.00;97745.94;5079261;28;20044;-93
2022/12/13 10:00:19;;;;;;;3.83;2.70;;;;;;;5.40;100.00;97723.88;5080191;28;20582;-94
2022/12/13 10:02:47;;;;;;;3.38;2.70;;;;;;;5.65;100.00;97755.78;5078822;28;20040;-93
2022/12/13 10:05:17;;;;;;;4.78;2.70;;;;;;;5.84;100.00;97761.50;5081122;28;20076;-93
2022/12/13 10:07:43;;;;;;;4.70;3.00;;;;;;;5.89;100.00;97743.78;5080915;28;20048;-93
2022/12/13 10:10:10;;;;;;;5.05;4.03;;;;;;;5.81;100.00;97756.28;5078106;28;20043;-92
2022/12/13 10:12:39;;;;;;;4.45;3.38;;;;;;;5.64;100.00;97745.25;5078076;28;20060;-93
2022/12/13 10:15:07;;;;;;;4.75;3.33;;;;;;;5.67;100.00;97753.97;5071595;28;20110;-93
2022/12/13 10:17:38;;;;;;;5.40;3.53;;;;;;;5.82;100.00;97742.19;5078063;28;20036;-93
2022/12/13 10:20:05;;;;;;;5.05;3.17;;;;;;;5.97;100.00;97731.28;5080691;28;20469;-91
2022/12/13 10:22:31;;;;;;;5.30;3.70;;;;;;;5.97;100.00;97723.38;5081186;28;20045;-92
2022/12/13 10:24:59;;;;;;;4.53;2.97;;;;;;;6.08;100.00;97753.91;5080556;28;20044;-94
2022/12/13 10:27:28;;;;;;;4.45;3.17;;;;;;;6.01;100.00;97747.03;5078797;28;20040;-95
2022/12/13 10:30:09;;;;;;;4.53;3.03;;;;;;;6.12;100.00;97750.28;5077330;28;20016;-92
2022/12/13 10:32:45;;;;;;;3.47;2.50;;;;;;;6.09;100.00;97739.78;5075916;28;20029;-93
2022/12/13 10:35:20;;;;;;;3.90;2.53;;;;;;;5.91;100.00;97723.50;5075954;28;20164;-94
2022/12/13 10:37:45;;;;;;;5.82;3.72;;;;;;;5.82;100.00;97730.78;5076859;28;20054;-94
2022/12/13 10:40:23;;;;;;;5.85;4.60;;;;;;;5.83;100.00;97733.38;5076521;28;20045;-90
2022/12/13 10:43:05;;;;;;;8.07;4.00;;;;;;;5.97;100.00;97731.28;5075104;28;20062;-92
2022/12/13 10:45:32;;;;;;;5.47;3.33;;;;;;;6.24;100.00;97749.94;5075384;28;20021;-92
2022/12/13 10:47:58;;;;;;;4.03;2.75;;;;;;;6.22;100.00;97709.53;5076715;28;20040;-93
2022/12/13 10:50:27;;;;;;;20.33;8.95;;;;;;;6.35;100.00;97732.09;5075154;28;20055;-94
2022/12/13 10:52:54;;;;;;;9.98;4.88;;;;;;;6.34;100.00;97717.13;5075368;28;20044;-94
2022/12/13 10:55:27;;;;;;;6.80;3.45;;;;;;;6.24;100.00;97726.19;5075558;28;20079;-93
2022/12/13 10:57:55;;;;;;;5.30;3.03;;;;;;;6.22;100.00;97738.56;5075444;28;20040;-94
2022/12/13 11:00:37;;;;;;;5.20;2.60;;;;;;;6.24;100.00;97730.63;5075002;28;21062;-92
2022/12/13 11:03:04;;;;;;;4.65;3.28;;;;;;;6.39;100.00;97717.00;5076761;28;20036;-93
2022/12/13 11:05:32;;;;;;;5.88;2.90;;;;;;;6.55;100.00;97717.47;5076025;28;20041;-94
2022/12/13 11:08:13;;;;;;;5.75;3.70;;;;;;;6.68;100.00;97697.72;5077143;28;20041;-93
2022/12/13 11:10:39;;;;;;;6.38;3.50;;;;;;;6.51;100.00;97694.69;5077308;28;20040;-93
2022/12/13 11:13:06;;;;;;;8.27;4.25;;;;;;;6.32;100.00;97689.91;5077010;28;20036;-93
2022/12/13 11:15:37;;;;;;;8.75;4.50;;;;;;;6.51;100.00;97716.66;5079533;28;20084;-93
2022/12/13 11:18:05;;;;;;;4.30;2.78;;;;;;;6.60;100.00;97693.56;5080346;28;20036;-94
2022/12/13 11:20:34;;;;;;;13.07;5.80;;;;;;;6.45;100.00;97708.91;5080862;28;20044;-92
2022/12/13 11:23:03;;;;;;;4.72;2.97;;;;;;;6.50;100.00;97719.34;5079838;28;20087;-94
2022/12/13 11:25:35;;;;;;;4.95;3.60;;;;;;;6.41;100.00;97717.81;5079171;28;20064;-94
2022/12/13 11:28:14;;;;;;;4.28;3.05;;;;;;;6.52;100.00;97723.66;5080149;28;20444;-94
2022/12/13 11:30:46;;;;;;;;;;;;;;;6.45;100.00;97729.19;5076972;28;20082;-93
2022/12/13 11:33:25;;;;;;;5.28;3.00;;;;;;;6.28;100.00;97719.06;5079622;28;19920;-94
2022/12/13 11:36:11;;;;;;;5.57;3.20;;;;;;;6.21;100.00;97696.41;5079424;28;20037;-93
2022/12/13 11:38:53;;;;;;;4.15;3.25;;;;;;;6.16;100.00;97715.84;5077187;28;20041;-93
2022/12/13 11:41:26;;;;;;;5.85;4.03;;;;;;;6.00;100.00;97681.97;5078114;28;20043;-92